Terminal Aerodrome Forecast
Issued by NWS Charleston, WV

Current Version | Previous Version | Text Only | Print | Product List | Glossary Off
Versions: 1 2 3 4 5 6 7 8 9 10 11 12 13 14 15 16 17 18 19 20 21 22 23 24 25 26 27 28 29 30 31

000
FTUS41 KRLX 270250 AAB
TAFPKB
TAF AMD
KPKB 270250Z 2703/2724 00000KT 6SM BR SCT006
     FM270400 00000KT 5SM BR SCT005 BKN080
     FM270500 00000KT 2SM BR BKN002
     FM270600 00000KT 1SM BR BKN001
     FM270700 00000KT 1/4SM FG OVC001
     FM271200 00000KT 3/4SM BR BKN001
     FM271300 00000KT 3SM BR BKN006
     FM271400 00000KT P6SM BKN060=

USA.gov is the U.S. government's official web portal to all federal, state and local government web resources and services.